Time;durP1;ratioP1;P1;durP2;ratioP2;P2;SDS_P1;SDS_P2;PMS_P1;PMS_P2;Temp;Humidity;BMP_temperature;BMP_pressure;BME280_temperature;BME280_humidity;BME280_pressure;Samples;Min_cycle;Max_cycle;Signal;HPM_P1;HPM_P2
2022/01/28 00:04:51;;;;;;;;;34.00;29.00;;;;;7.96;84.82;102531.25;5014712;28;45289;-76
2022/01/28 00:07:17;;;;;;;;;40.25;31.00;;;;;7.98;85.26;102531.28;5021602;28;47216;-77
2022/01/28 00:09:42;;;;;;;;;41.75;37.00;;;;;7.96;85.22;102526.00;5015328;28;45550;-77
2022/01/28 00:12:09;;;;;;;;;40.25;31.75;;;;;8.00;85.87;102525.22;5013672;28;45437;-77
2022/01/28 00:14:50;;;;;;;;;30.75;27.75;;;;;7.88;85.85;102509.16;5014434;28;45284;-76
2022/01/28 00:38:53;;;;;;;;;30.75;27.25;;;;;8.05;85.81;102548.09;5012803;28;45463;-75
2022/01/28 00:41:19;;;;;;;;;30.50;26.75;;;;;8.05;86.39;102551.66;5013337;28;45323;-75
2022/01/28 00:43:45;;;;;;;;;28.50;26.50;;;;;8.05;86.49;102562.19;5013701;28;45545;-76
2022/01/28 00:46:10;;;;;;;;;26.50;24.00;;;;;8.05;86.36;102559.56;5006923;28;45569;-77
2022/01/28 00:48:36;;;;;;;;;27.75;24.75;;;;;8.08;86.23;102569.28;4994507;28;46672;-75
2022/01/28 00:51:02;;;;;;;;;31.50;27.00;;;;;8.11;86.47;102558.81;5006404;28;45468;-75
2022/01/28 00:53:27;;;;;;;;;26.50;24.25;;;;;8.10;86.17;102560.53;5014901;28;45409;-76
2022/01/28 00:55:57;;;;;;;;;32.50;25.00;;;;;8.06;86.19;102569.25;5009285;28;45554;-75
2022/01/28 00:58:23;;;;;;;;;24.50;23.25;;;;;8.09;86.62;102571.03;4999373;28;47054;-76
2022/01/28 01:00:48;;;;;;;;;30.75;23.25;;;;;8.10;86.30;102567.56;5007384;28;45358;-74
2022/01/28 01:03:15;;;;;;;;;23.00;19.50;;;;;8.11;86.13;102577.25;4997919;28;45563;-76
2022/01/28 01:05:40;;;;;;;;;29.75;27.75;;;;;8.09;85.92;102576.31;4999455;28;45546;-75
2022/01/28 01:08:06;;;;;;;;;29.00;28.00;;;;;8.12;86.00;102576.38;5015656;28;46212;-75
2022/01/28 01:10:33;;;;;;;;;28.75;25.00;;;;;8.13;86.68;102586.06;5016917;28;45412;-74
2022/01/28 01:12:59;;;;;;;;;32.25;26.25;;;;;8.14;86.29;102578.19;5017004;28;45461;-75
2022/01/28 01:15:29;;;;;;;;;29.25;26.25;;;;;8.15;86.06;102573.78;5018943;28;45578;-75
2022/01/28 01:23:28;;;;;;;;;41.25;30.25;;;;;8.16;85.56;102592.28;4956739;28;45392;-74
2022/01/28 01:28:22;;;;;;;;;31.50;25.75;;;;;8.14;85.17;102593.13;4974003;28;45898;-74
2022/01/28 01:30:48;;;;;;;;;30.50;27.25;;;;;8.05;85.05;102574.44;4975033;28;45413;-75
2022/01/28 01:33:15;;;;;;;;;34.50;25.00;;;;;8.12;85.30;102586.91;4974922;28;45549;-76
2022/01/28 01:35:41;;;;;;;;;25.00;22.75;;;;;8.13;85.30;102593.97;4974006;28;45634;-76
2022/01/28 01:38:08;;;;;;;;;26.50;25.50;;;;;8.10;85.12;102594.78;4975012;28;45461;-76
2022/01/28 01:40:46;;;;;;;;;30.00;25.50;;;;;8.10;84.68;102601.78;4974462;28;45427;-76
2022/01/28 01:43:26;;;;;;;;;30.50;27.25;;;;;8.10;84.48;102599.16;4974189;28;45376;-75
2022/01/28 01:53:52;;;;;;;;;31.00;26.50;;;;;8.07;84.99;102609.63;4974322;28;45755;-75
2022/01/28 01:56:21;;;;;;;;;31.50;25.75;;;;;8.07;84.76;102612.25;4976510;28;45398;-75
2022/01/28 01:58:46;;;;;;;;;27.50;24.25;;;;;8.07;84.94;102617.53;5001220;28;46254;-75
2022/01/28 02:01:14;;;;;;;;;36.25;30.25;;;;;8.06;84.83;102615.75;5015841;28;45475;-75
2022/01/28 02:03:40;;;;;;;;;43.75;30.50;;;;;8.03;85.01;102620.94;5015904;28;45426;-76
2022/01/28 02:06:06;;;;;;;;;33.50;27.00;;;;;7.95;84.02;102629.53;5011679;28;45549;-76
2022/01/28 02:08:32;;;;;;;;;34.00;30.50;;;;;7.93;84.00;102631.25;4996220;28;46401;-76
2022/01/28 02:10:59;;;;;;;;;37.00;27.75;;;;;7.91;83.52;102630.34;5010642;28;45498;-74
2022/01/28 02:13:26;;;;;;;;;31.75;23.25;;;;;7.90;83.87;102636.47;5009501;28;45546;-75
2022/01/28 02:15:53;;;;;;;;;35.50;30.25;;;;;7.88;83.25;102627.63;5003766;28;45558;-76
2022/01/28 02:18:19;;;;;;;;;34.25;27.25;;;;;7.85;83.80;102637.19;5014505;28;46541;-75
2022/01/28 02:20:48;;;;;;;;;40.00;27.00;;;;;7.82;84.15;102640.66;5016937;28;45403;-75
2022/01/28 02:23:14;;;;;;;;;41.00;27.25;;;;;7.80;83.44;102642.34;5020941;28;45357;-74
2022/01/28 02:25:39;;;;;;;;;37.25;31.00;;;;;7.77;83.61;102639.63;5008394;28;45341;-74
2022/01/28 02:28:08;;;;;;;;;40.00;30.50;;;;;7.74;83.32;102639.56;5035954;28;46296;-75
2022/01/28 02:30:33;;;;;;;;;33.00;24.50;;;;;7.73;84.42;102637.78;5034533;28;45482;-76
2022/01/28 02:33:11;;;;;;;;;32.00;29.75;;;;;7.68;83.64;102634.16;5029336;28;45348;-77
2022/01/28 02:35:38;;;;;;;;;33.75;27.50;;;;;7.65;83.21;102637.59;5016495;28;45666;-75
2022/01/28 02:38:03;;;;;;;;;27.75;26.50;;;;;7.61;84.70;102644.53;5014447;28;45418;-75
2022/01/28 02:40:29;;;;;;;;;31.75;26.00;;;;;7.64;84.59;102644.59;5017426;28;45280;-74
2022/01/28 02:43:00;;;;;;;;;43.25;32.75;;;;;7.63;84.34;102647.19;5019129;28;45376;-75
2022/01/28 02:45:30;;;;;;;;;30.25;25.25;;;;;7.65;84.27;102650.75;5018143;28;45598;-76
2022/01/28 02:48:01;;;;;;;;;34.50;22.00;;;;;7.61;83.85;102662.97;5008161;28;46445;-75
2022/01/28 02:50:29;;;;;;;;;39.25;33.75;;;;;7.59;83.90;102656.78;5035798;28;45417;-76
2022/01/28 02:53:09;;;;;;;;;38.25;34.75;;;;;7.61;83.93;102660.31;5027219;28;45305;-75
2022/01/28 02:55:39;;;;;;;;;33.75;31.25;;;;;7.60;83.81;102645.38;4997330;28;45358;-75
2022/01/28 02:58:20;;;;;;;;;32.00;23.00;;;;;7.59;84.16;102648.88;5015196;28;45908;-75
2022/01/28 03:00:47;;;;;;;;;24.50;23.00;;;;;7.62;83.73;102650.66;4995242;28;45395;-74
2022/01/28 03:03:14;;;;;;;;;40.50;28.25;;;;;7.60;83.68;102658.53;4995780;28;45763;-77
2022/01/28 03:05:40;;;;;;;;;28.00;24.50;;;;;7.59;83.53;102656.78;5010405;28;45489;-76
2022/01/28 03:08:06;;;;;;;;;35.25;27.25;;;;;7.61;84.10;102649.78;5015216;28;45511;-76
2022/01/28 03:10:48;;;;;;;;;41.25;27.75;;;;;7.60;84.36;102648.00;5014995;28;45406;-74
2022/01/28 03:13:31;;;;;;;;;33.25;28.00;;;;;7.63;83.72;102636.66;5015228;28;45354;-76
2022/01/28 03:16:07;;;;;;;;;34.50;27.25;;;;;7.62;83.85;102643.69;5014277;28;45328;-75
2022/01/28 03:18:43;;;;;;;;;37.25;30.25;;;;;7.62;84.18;102634.88;5013384;28;45428;-75
2022/01/28 03:21:21;;;;;;;;;40.50;29.50;;;;;7.63;83.80;102626.16;5014412;28;45299;-75
2022/01/28 03:23:46;;;;;;;;;30.50;26.00;;;;;7.63;83.52;102637.56;5015976;28;45407;-75
2022/01/28 03:26:13;;;;;;;;;40.25;28.25;;;;;7.65;83.33;102633.25;5036424;28;45475;-75
2022/01/28 03:28:39;;;;;;;;;34.00;28.75;;;;;7.64;83.46;102634.06;5035422;28;45483;-74
2022/01/28 03:31:04;;;;;;;;;42.25;34.75;;;;;7.66;83.13;102634.13;5034175;28;45363;-75
2022/01/28 03:33:30;;;;;;;;;37.25;26.25;;;;;7.64;83.12;102644.59;5026609;28;45523;-78
2022/01/28 03:35:55;;;;;;;;;32.25;29.50;;;;;7.58;83.09;102638.31;5014062;28;45426;-75
2022/01/28 03:38:21;;;;;;;;;30.00;28.75;;;;;7.64;83.52;102644.59;5012426;28;45319;-76
2022/01/28 03:40:48;;;;;;;;;32.25;24.75;;;;;7.63;83.15;102624.38;5014799;28;45396;-74
2022/01/28 03:43:14;;;;;;;;;34.75;27.75;;;;;7.68;82.19;102629.75;5008980;28;45331;-75
2022/01/28 03:45:39;;;;;;;;;43.00;27.25;;;;;7.65;82.75;102625.34;5012481;28;45297;-75
2022/01/28 03:48:05;;;;;;;;;28.50;21.75;;;;;7.65;82.12;102635.88;5016938;28;46174;-75
2022/01/28 03:50:34;;;;;;;;;35.50;27.50;;;;;7.64;82.84;102641.97;5014242;28;45352;-75
2022/01/28 03:53:05;;;;;;;;;31.75;23.75;;;;;7.68;81.79;102647.31;5014433;28;45454;-75
2022/01/28 03:55:31;;;;;;;;;43.00;35.75;;;;;7.67;82.48;102653.41;5015634;28;45431;-75
2022/01/28 03:57:56;;;;;;;;;46.00;36.75;;;;;7.62;82.34;102656.84;5015362;28;46069;-75
2022/01/28 04:00:26;;;;;;;;;39.75;32.00;;;;;7.64;82.75;102660.41;4995931;28;45408;-75
2022/01/28 04:03:02;;;;;;;;;35.00;31.00;;;;;7.63;83.07;102674.41;4996848;28;45392;-75
2022/01/28 04:13:30;;;;;;;;;46.00;39.75;;;;;7.58;82.92;102683.06;5013316;28;45427;-76
2022/01/28 04:18:25;;;;;;;;;45.50;36.50;;;;;7.57;82.88;102682.16;5014409;28;45907;-75
2022/01/28 04:20:51;;;;;;;;;55.00;48.00;;;;;7.54;83.00;102676.81;5014661;28;45427;-75
2022/01/28 04:23:16;;;;;;;;;49.75;42.50;;;;;7.54;83.03;102673.28;5014176;28;45574;-74
2022/01/28 04:25:42;;;;;;;;;47.75;41.00;;;;;7.53;82.83;102675.03;5015008;28;45525;-78
2022/01/28 04:28:08;;;;;;;;;42.50;37.00;;;;;7.53;83.77;102672.41;5015270;28;46350;-76
2022/01/28 04:30:35;;;;;;;;;58.00;47.00;;;;;7.51;83.87;102667.94;5025904;28;45380;-76
2022/01/28 04:33:01;;;;;;;;;43.75;37.25;;;;;7.48;83.48;102663.47;5033602;28;45455;-75
2022/01/28 04:35:27;;;;;;;;;44.50;36.00;;;;;7.53;83.26;102677.66;5017208;28;45615;-75
2022/01/28 04:38:07;;;;;;;;;57.00;46.50;;;;;7.52;83.70;102686.41;5017346;28;45467;-76
2022/01/28 04:40:39;;;;;;;;;62.50;45.00;;;;;7.50;83.18;102682.84;5017206;28;45530;-75
2022/01/28 04:43:15;;;;;;;;;50.00;45.00;;;;;7.45;83.87;102680.09;5017468;28;45560;-76
2022/01/28 04:45:52;;;;;;;;;47.00;42.25;;;;;7.43;83.78;102676.53;5016885;28;45688;-74
2022/01/28 04:48:31;;;;;;;;;60.75;40.25;;;;;7.43;83.67;102675.66;4997300;28;46724;-76
2022/01/28 05:02:04;;;;;;;;;58.50;42.00;;;;;7.40;84.00;102691.34;5018224;28;45533;-75
2022/01/28 05:07:02;;;;;;;;;43.75;34.25;;;;;7.42;84.70;102700.16;4999691;28;45571;-76
2022/01/28 05:26:02;;;;;;;;;33.00;29.75;;;;;7.39;83.11;102700.09;5016858;28;45397;-75
2022/01/28 05:28:27;;;;;;;;;25.75;22.00;;;;;7.40;83.54;102717.66;5018279;28;45517;-75
2022/01/28 05:30:53;;;;;;;;;36.75;24.00;;;;;7.35;82.75;102721.88;5015526;28;46274;-77
2022/01/28 05:33:18;;;;;;;;;28.75;26.50;;;;;7.33;82.37;102715.69;5023002;28;45368;-76
2022/01/28 05:35:44;;;;;;;;;29.50;24.50;;;;;7.30;83.06;102727.03;5021673;28;45466;-75
2022/01/28 05:38:09;;;;;;;;;30.25;28.25;;;;;7.29;83.19;102744.56;5017244;28;45512;-76
2022/01/28 05:40:35;;;;;;;;;34.50;31.00;;;;;7.27;83.77;102741.00;5016665;28;45503;-75
2022/01/28 05:43:01;;;;;;;;;28.25;25.25;;;;;7.25;82.90;102729.53;5022806;28;45826;-75
2022/01/28 05:45:27;;;;;;;;;34.00;25.75;;;;;7.21;82.96;102730.31;4996121;28;45486;-75
2022/01/28 05:47:54;;;;;;;;;30.25;28.25;;;;;7.21;83.16;102738.19;4995531;28;45393;-76
2022/01/28 05:50:19;;;;;;;;;35.75;30.00;;;;;7.23;83.30;102749.66;4997726;28;46720;-75
2022/01/28 05:52:45;;;;;;;;;29.50;24.75;;;;;7.16;83.70;102742.44;4996566;28;45523;-75
2022/01/28 05:55:11;;;;;;;;;25.25;22.25;;;;;7.21;83.61;102748.72;5016974;28;45420;-76
2022/01/28 05:57:36;;;;;;;;;27.50;22.50;;;;;7.21;82.95;102756.63;5017149;28;45356;-75
2022/01/28 06:00:03;;;;;;;;;31.50;22.75;;;;;7.21;82.87;102759.25;5015683;28;45562;-76
2022/01/28 06:02:29;;;;;;;;;31.00;27.25;;;;;7.21;83.35;102764.50;5021654;28;45274;-74
2022/01/28 06:04:54;;;;;;;;;31.50;24.25;;;;;7.22;82.78;102768.91;5018446;28;45387;-76
2022/01/28 06:07:21;;;;;;;;;33.75;26.50;;;;;7.23;83.03;102777.69;5016286;28;45267;-76
2022/01/28 06:09:46;;;;;;;;;31.00;22.50;;;;;7.25;83.03;102786.53;5015617;28;47344;-76
2022/01/28 06:12:11;;;;;;;;;28.00;26.00;;;;;7.23;82.73;102781.22;5013434;28;45420;-77
2022/01/28 06:14:37;;;;;;;;;37.75;26.25;;;;;7.26;82.24;102777.78;5016450;28;45479;-76
2022/01/28 06:17:02;;;;;;;;;32.25;30.00;;;;;7.27;83.02;102779.56;5015742;28;45702;-76
2022/01/28 06:19:28;;;;;;;;;33.25;27.25;;;;;7.26;82.92;102772.53;5016324;28;46373;-75
2022/01/28 06:21:53;;;;;;;;;27.75;22.50;;;;;7.28;82.97;102774.34;5013240;28;45483;-80
2022/01/28 06:24:18;;;;;;;;;30.75;27.25;;;;;7.27;82.24;102769.94;5019532;28;45480;-81
2022/01/28 06:26:44;;;;;;;;;25.75;21.25;;;;;7.28;82.27;102776.97;5017938;28;45403;-81
2022/01/28 06:29:12;;;;;;;;;27.50;20.25;;;;;7.34;82.91;102778.00;5022715;28;45476;-81
2022/01/28 06:31:38;;;;;;;;;34.25;25.00;;;;;7.35;81.87;102766.63;5021383;28;45387;-80
2022/01/28 06:34:03;;;;;;;;;35.25;28.25;;;;;7.34;82.27;102776.25;5018237;28;45452;-81
2022/01/28 06:36:30;;;;;;;;;34.00;29.50;;;;;7.34;81.67;102771.00;5019585;28;45481;-81
2022/01/28 06:38:57;;;;;;;;;39.00;30.25;;;;;7.37;81.67;102776.34;5019710;28;45633;-81
2022/01/28 06:41:22;;;;;;;;;31.00;27.00;;;;;7.32;81.67;102770.06;5017708;28;45502;-81
2022/01/28 06:43:48;;;;;;;;;45.00;27.50;;;;;7.32;81.60;102764.81;5018574;28;45316;-80
2022/01/28 06:46:13;;;;;;;;;44.50;36.00;;;;;7.32;82.54;102761.28;5000945;28;45377;-81
2022/01/28 06:48:39;;;;;;;;;43.25;34.00;;;;;7.16;81.24;102747.69;5005148;28;47043;-81
2022/01/28 06:51:04;;;;;;;;;45.00;37.00;;;;;7.28;81.77;102778.72;5036453;28;45586;-81
2022/01/28 06:53:29;;;;;;;;;49.75;34.50;;;;;7.20;82.53;102778.50;5038397;28;45813;-81
2022/01/28 06:55:55;;;;;;;;;55.50;44.75;;;;;7.11;81.91;102772.97;5025950;28;45339;-78
2022/01/28 06:58:20;;;;;;;;;38.25;35.75;;;;;7.22;81.98;102784.69;5018640;28;45601;-82
2022/01/28 07:00:46;;;;;;;;;43.50;34.25;;;;;7.23;81.99;102782.97;5024427;28;45597;-82
2022/01/28 07:03:14;;;;;;;;;49.00;39.25;;;;;7.23;81.96;102789.09;5023318;28;45502;-80
2022/01/28 07:05:41;;;;;;;;;35.00;31.00;;;;;7.22;81.94;102792.56;5020771;28;45689;-81
2022/01/28 07:08:08;;;;;;;;;51.25;37.50;;;;;7.20;82.25;102794.28;5016212;28;48254;-80
2022/01/28 07:10:34;;;;;;;;;48.25;39.00;;;;;7.17;82.80;102791.56;5014427;28;45401;-82
2022/01/28 07:12:59;;;;;;;;;45.25;37.75;;;;;7.23;81.81;102794.38;5011588;28;45552;-81
2022/01/28 07:15:26;;;;;;;;;43.00;39.50;;;;;7.22;82.38;102792.56;5015873;28;45392;-81
2022/01/28 07:17:53;;;;;;;;;44.00;40.75;;;;;7.24;81.92;102801.44;5034612;28;46387;-82
2022/01/28 07:20:18;;;;;;;;;57.25;43.25;;;;;7.23;82.18;102797.00;5024469;28;45625;-80
2022/01/28 07:22:44;;;;;;;;;39.25;34.75;;;;;7.24;81.59;102801.44;5016575;28;45387;-80
2022/01/28 07:25:09;;;;;;;;;43.50;37.50;;;;;7.25;82.03;102805.81;5015883;28;45372;-80
2022/01/28 07:27:34;;;;;;;;;61.50;43.50;;;;;7.22;81.58;102804.84;5016029;28;46192;-81
2022/01/28 07:30:00;;;;;;;;;44.75;39.25;;;;;7.16;81.04;102797.66;5009056;28;45403;-81
2022/01/28 07:32:25;;;;;;;;;49.50;40.00;;;;;7.25;81.52;102812.81;4999656;28;45330;-80
2022/01/28 07:34:51;;;;;;;;;41.50;36.25;;;;;7.24;80.94;102817.22;5000191;28;45604;-80
2022/01/28 07:37:18;;;;;;;;;48.75;43.00;;;;;7.25;81.13;102828.59;5022760;28;46119;-82
2022/01/28 07:39:45;;;;;;;;;55.00;39.75;;;;;7.24;80.69;102827.72;5030748;28;45587;-81
2022/01/28 07:42:10;;;;;;;;;58.25;46.50;;;;;7.17;81.43;102814.34;5014355;28;45672;-80
2022/01/28 07:44:35;;;;;;;;;50.25;45.00;;;;;7.24;80.84;102838.25;5015606;28;45545;-78
2022/01/28 07:47:01;;;;;;;;;55.25;37.50;;;;;7.29;80.56;102841.03;5013113;28;45510;-80
2022/01/28 07:49:26;;;;;;;;;49.25;35.75;;;;;7.26;80.54;102836.53;5008263;28;45470;-81
2022/01/28 07:51:51;;;;;;;;;47.00;38.25;;;;;7.26;80.91;102838.28;4997364;28;45490;-80
2022/01/28 07:54:17;;;;;;;;;49.75;39.50;;;;;7.26;80.01;102851.44;5024586;28;45558;-80
2022/01/28 07:56:43;;;;;;;;;49.50;43.75;;;;;7.30;80.35;102848.03;5033768;28;46136;-81
2022/01/28 07:59:09;;;;;;;;;53.25;38.50;;;;;7.27;80.27;102848.88;5025364;28;45408;-80
2022/01/28 08:01:35;;;;;;;;;50.00;36.75;;;;;7.31;80.75;102854.22;5018241;28;45559;-80
2022/01/28 08:04:01;;;;;;;;;40.00;37.00;;;;;7.34;80.52;102860.44;5021727;28;45718;-80
2022/01/28 08:06:29;;;;;;;;;49.75;43.50;;;;;7.38;80.49;102871.94;5021962;28;45395;-79
2022/01/28 08:08:57;;;;;;;;;39.00;33.50;;;;;7.38;80.60;102866.69;5019787;28;45438;-80
2022/01/28 08:11:22;;;;;;;;;41.00;29.50;;;;;7.38;79.39;102871.94;5018532;28;45517;-80
2022/01/28 08:13:48;;;;;;;;;38.00;31.00;;;;;7.40;79.79;102870.28;5026799;28;45568;-81
2022/01/28 08:16:13;;;;;;;;;50.25;38.50;;;;;7.44;79.37;102878.31;5020361;28;46285;-81
2022/01/28 08:18:39;;;;;;;;;47.50;39.75;;;;;7.46;79.62;102871.34;5023770;28;45324;-81
2022/01/28 08:21:04;;;;;;;;;52.50;39.25;;;;;7.45;79.82;102858.13;5017775;28;45559;-80
2022/01/28 08:23:29;;;;;;;;;48.25;42.25;;;;;7.52;79.83;102868.00;5029136;28;45581;-81
2022/01/28 08:25:55;;;;;;;;;39.50;39.50;;;;;7.52;79.16;102870.63;5039720;28;45583;-78
2022/01/28 08:28:21;;;;;;;;;57.25;44.50;;;;;7.55;79.57;102883.00;5024332;28;45457;-80
2022/01/28 08:30:46;;;;;;;;;50.75;38.50;;;;;7.56;79.19;102877.78;5021540;28;45522;-82
2022/01/28 08:33:12;;;;;;;;;54.75;46.75;;;;;7.59;79.97;102872.59;5026778;28;45410;-80
2022/01/28 08:35:40;;;;;;;;;50.75;43.25;;;;;7.67;79.10;102877.16;5019867;28;46253;-81
2022/01/28 08:38:15;;;;;;;;;47.50;42.25;;;;;7.73;79.45;102891.41;5030416;28;45529;-79
2022/01/28 08:40:43;;;;;;;;;41.50;36.00;;;;;7.76;78.28;102885.34;5019492;28;45394;-81
2022/01/28 08:43:08;;;;;;;;;45.25;37.00;;;;;7.80;78.31;102888.13;5018426;28;45559;-80
2022/01/28 08:45:34;;;;;;;;;40.75;37.25;;;;;7.90;76.94;102905.06;5017976;28;45371;-81
2022/01/28 08:47:59;;;;;;;;;36.25;32.25;;;;;8.00;77.27;102900.91;5024965;28;45479;-79
2022/01/28 08:50:26;;;;;;;;;43.00;32.75;;;;;8.06;76.71;102910.75;5022472;28;45244;-80
2022/01/28 08:52:51;;;;;;;;;42.50;33.25;;;;;8.11;75.53;102914.41;5026693;28;45598;-80
2022/01/28 08:55:17;;;;;;;;;31.25;24.25;;;;;8.11;75.09;102910.03;5034906;28;45366;-79
2022/01/28 08:57:43;;;;;;;;;35.50;32.00;;;;;8.19;74.25;102920.75;5033148;28;45292;-80
2022/01/28 09:00:18;;;;;;;;;30.75;27.25;;;;;8.25;74.14;102931.47;5044105;28;45275;-76
2022/01/28 09:02:44;;;;;;;;;36.25;32.25;;;;;8.26;73.84;102935.91;5020376;28;45632;-79
2022/01/28 09:05:10;;;;;;;;;35.50;22.75;;;;;8.29;73.52;102941.25;5033499;28;45549;-81
2022/01/28 09:07:35;;;;;;;;;27.25;22.50;;;;;8.35;73.17;102941.41;5033880;28;45471;-81
2022/01/28 09:10:06;;;;;;;;;32.00;29.75;;;;;8.31;72.80;102930.75;5037248;28;45498;-74
2022/01/28 09:12:46;;;;;;;;;26.25;24.50;;;;;8.45;72.41;102937.28;5013849;28;45378;-81
2022/01/28 09:15:13;;;;;;;;;27.75;24.50;;;;;8.46;72.08;102938.22;5000991;28;45408;-80
2022/01/28 09:17:38;;;;;;;;;31.50;22.75;;;;;8.44;72.42;102939.88;5011553;28;45540;-76
2022/01/28 09:20:04;;;;;;;;;31.00;27.00;;;;;8.48;72.08;102929.47;5015098;28;45383;-81
2022/01/28 09:22:30;;;;;;;;;32.75;26.50;;;;;8.57;71.90;102942.00;5023626;28;45708;-81
2022/01/28 09:24:56;;;;;;;;;33.50;25.50;;;;;8.65;71.53;102940.44;5011056;28;45988;-78
2022/01/28 09:27:21;;;;;;;;;36.25;29.25;;;;;8.75;70.97;102941.59;4996788;28;45488;-77
2022/01/28 09:29:48;;;;;;;;;35.50;24.50;;;;;8.82;70.91;102929.44;4996803;28;45409;-77
2022/01/28 09:32:16;;;;;;;;;37.25;25.75;;;;;8.89;71.08;102928.72;4997323;28;45487;-77
2022/01/28 09:34:42;;;;;;;;;25.75;24.50;;;;;9.00;69.73;102940.44;5023362;28;45502;-76
2022/01/28 09:37:09;;;;;;;;;24.50;22.00;;;;;9.07;70.02;102945.00;5020853;28;45438;-77
2022/01/28 09:39:36;;;;;;;;;29.50;21.25;;;;;9.20;69.24;102955.84;5036452;28;45447;-76
2022/01/28 09:42:03;;;;;;;;;22.25;15.50;;;;;9.17;68.50;102930.28;5008090;28;45634;-76
2022/01/28 09:44:30;;;;;;;;;26.75;22.50;;;;;9.33;68.70;102941.19;5001493;28;45650;-76
2022/01/28 09:46:58;;;;;;;;;28.25;18.50;;;;;9.37;68.67;102943.06;5016136;28;45499;-77
2022/01/28 09:49:24;;;;;;;;;24.25;13.50;;;;;9.33;68.38;102928.88;5027480;28;45378;-77
2022/01/28 09:51:50;;;;;;;;;24.50;22.50;;;;;9.40;67.76;102927.28;5025623;28;45387;-75
2022/01/28 09:54:16;;;;;;;;;19.00;17.00;;;;;9.48;67.41;102941.53;4997086;28;46402;-76
2022/01/28 09:56:41;;;;;;;;;21.00;16.25;;;;;9.52;67.69;102937.19;5002246;28;45670;-75
2022/01/28 09:59:06;;;;;;;;;29.50;21.75;;;;;9.55;66.82;102932.91;5016555;28;45431;-80
2022/01/28 10:01:32;;;;;;;;;18.50;15.00;;;;;9.50;67.36;102933.66;5031873;28;45399;-80
2022/01/28 10:04:05;;;;;;;;;21.00;17.00;;;;;9.46;67.12;102927.41;5013894;28;45524;-79
2022/01/28 10:06:34;;;;;;;;;17.00;16.25;;;;;9.45;67.39;102935.31;5016313;28;45399;-80
2022/01/28 10:09:07;;;;;;;;;16.25;14.00;;;;;9.45;67.34;102948.50;5013588;28;45579;-80
2022/01/28 10:11:32;;;;;;;;;24.50;18.75;;;;;9.36;66.95;102950.06;5014365;28;45498;-80
2022/01/28 10:14:07;;;;;;;;;31.00;19.00;;;;;9.32;67.85;102953.50;5019635;28;45561;-80
2022/01/28 10:16:33;;;;;;;;;28.00;22.50;;;;;9.27;67.85;102957.78;5023221;28;45375;-80
2022/01/28 10:19:00;;;;;;;;;23.00;19.25;;;;;9.22;68.33;102946.22;5024567;28;45511;-81
2022/01/28 10:21:38;;;;;;;;;29.25;24.00;;;;;9.16;68.42;102956.66;5032204;28;45676;-79
2022/01/28 10:24:09;;;;;;;;;21.50;18.25;;;;;9.07;68.26;102952.03;5023462;28;46186;-80
2022/01/28 10:26:39;;;;;;;;;26.50;18.00;;;;;9.09;69.36;102952.06;5023759;28;45434;-77
2022/01/28 10:29:09;;;;;;;;;29.25;21.75;;;;;9.07;68.36;102954.66;5029535;28;45370;-79
2022/01/28 10:31:38;;;;;;;;;31.75;23.50;;;;;9.06;68.97;102959.06;5024400;28;45517;-80
2022/01/28 10:34:11;;;;;;;;;28.00;21.50;;;;;9.03;68.94;102959.00;5023191;28;45534;-80
2022/01/28 10:36:37;;;;;;;;;24.50;19.75;;;;;8.99;69.34;102964.16;5037228;28;45387;-80
2022/01/28 10:39:03;;;;;;;;;25.00;19.50;;;;;8.94;68.90;102953.47;5027990;28;45402;-80
2022/01/28 10:41:28;;;;;;;;;30.75;20.50;;;;;8.91;69.03;102963.94;5033055;28;45605;-79
2022/01/28 10:43:56;;;;;;;;;24.50;18.50;;;;;8.87;69.45;102954.19;5047122;28;45078;-79
2022/01/28 10:46:26;;;;;;;;;25.50;18.50;;;;;8.90;68.61;102967.44;5019432;28;45530;-80
2022/01/28 10:49:01;;;;;;;;;29.50;18.50;;;;;8.87;68.49;102977.94;5024188;28;45292;-80
2022/01/28 10:51:45;;;;;;;;;21.75;18.00;;;;;8.87;68.03;102972.66;5014473;28;45388;-81
2022/01/28 10:54:14;;;;;;;;;18.00;15.50;;;;;8.88;68.08;102975.31;5014388;28;45366;-80
2022/01/28 10:56:59;;;;;;;;;22.00;17.25;;;;;8.95;68.22;102981.63;5033796;28;45396;-80
2022/01/28 10:59:33;;;;;;;;;12.75;11.75;;;;;8.99;66.79;102986.16;5015164;28;45845;-80
2022/01/28 11:01:59;;;;;;;;;22.75;19.00;;;;;9.01;66.90;102987.06;5015172;28;45763;-80
2022/01/28 11:04:25;;;;;;;;;23.50;16.25;;;;;9.10;66.69;102985.53;5017071;28;46042;-77
2022/01/28 11:06:54;;;;;;;;;19.75;13.75;;;;;9.14;67.00;102980.34;5011027;28;45668;-76
2022/01/28 11:09:21;;;;;;;;;23.75;17.00;;;;;9.22;66.65;102988.44;5021464;28;45436;-77
2022/01/28 11:11:48;;;;;;;;;20.00;17.00;;;;;9.26;66.03;102990.28;5026048;28;45466;-76
2022/01/28 11:14:14;;;;;;;;;28.50;21.25;;;;;9.24;66.09;102984.97;5016119;28;45480;-76
2022/01/28 11:16:40;;;;;;;;;29.75;27.00;;;;;9.16;66.64;102978.63;5012485;28;45472;-81
2022/01/28 11:19:09;;;;;;;;;22.00;18.75;;;;;9.19;66.25;102981.34;5014049;28;45470;-80
2022/01/28 11:21:46;;;;;;;;;21.50;18.00;;;;;9.18;66.56;102979.53;5015109;28;45503;-79
2022/01/28 11:24:37;;;;;;;;;22.75;17.75;;;;;9.13;66.88;102970.66;5013052;28;46295;-76
2022/01/28 11:27:18;;;;;;;;;27.25;18.25;;;;;9.12;66.50;102966.22;5014346;28;45577;-77
2022/01/28 11:29:44;;;;;;;;;24.50;20.50;;;;;9.11;66.78;102972.38;5022621;28;45599;-77
2022/01/28 11:32:14;;;;;;;;;28.50;20.75;;;;;9.11;66.75;102963.53;5022223;28;45428;-77
2022/01/28 11:34:55;;;;;;;;;20.00;19.00;;;;;9.06;67.02;102964.34;5024273;28;46692;-78
2022/01/28 11:37:42;;;;;;;;;22.50;20.00;;;;;9.06;67.55;102964.34;5011324;28;45512;-80
2022/01/28 11:40:13;;;;;;;;;34.50;21.50;;;;;9.11;67.96;102963.53;5019409;28;45609;-80
2022/01/28 11:42:39;;;;;;;;;28.50;20.50;;;;;9.13;67.84;102964.50;5020701;28;45353;-79
2022/01/28 11:45:06;;;;;;;;;22.25;20.00;;;;;9.09;67.88;102962.63;5020677;28;46306;-76
2022/01/28 11:47:37;;;;;;;;;24.25;19.25;;;;;9.02;67.88;102949.28;5023135;28;45526;-77
2022/01/28 11:50:23;;;;;;;;;22.25;16.00;;;;;9.04;67.75;102942.28;5022654;28;45518;-76
2022/01/28 11:52:54;;;;;;;;;19.50;15.25;;;;;8.95;68.10;102939.44;5013875;28;45412;-77
2022/01/28 11:55:28;;;;;;;;;18.25;16.50;;;;;9.01;67.69;102946.59;5022705;28;46218;-77
2022/01/28 11:58:08;;;;;;;;;22.25;20.00;;;;;9.02;67.02;102930.81;5013905;28;45419;-76
2022/01/28 12:00:50;;;;;;;;;17.00;13.50;;;;;8.97;67.38;102927.16;5030435;28;45527;-78
2022/01/28 12:03:31;;;;;;;;;18.75;15.00;;;;;8.97;66.75;102935.06;5010930;28;45495;-77
2022/01/28 12:06:08;;;;;;;;;17.25;13.75;;;;;8.93;66.99;102913.88;5021129;28;45467;-77
2022/01/28 12:08:34;;;;;;;;;16.25;13.00;;;;;8.97;66.04;102906.06;5013530;28;45391;-77
2022/01/28 12:11:03;;;;;;;;;14.25;13.00;;;;;9.02;66.56;102901.81;5019217;28;45467;-77
2022/01/28 12:13:47;;;;;;;;;17.00;16.00;;;;;9.01;66.54;102886.81;5020942;28;45985;-76
2022/01/28 12:16:25;;;;;;;;;19.00;15.00;;;;;9.15;66.03;102895.03;5019253;28;45469;-75
2022/01/28 12:18:56;;;;;;;;;19.25;19.25;;;;;9.29;65.79;102891.81;5014747;28;45436;-81
2022/01/28 12:21:31;;;;;;;;;19.75;18.75;;;;;9.38;65.93;102905.22;5014647;28;45578;-81
2022/01/28 12:24:18;;;;;;;;;17.25;13.50;;;;;9.42;65.46;102900.03;5026995;28;45650;-81
2022/01/28 12:27:03;;;;;;;;;20.50;14.75;;;;;9.44;64.70;102889.53;5015324;28;45568;-80
2022/01/28 12:29:31;;;;;;;;;16.00;14.75;;;;;9.45;65.37;102885.16;5028132;28;45600;-80
2022/01/28 12:31:58;;;;;;;;;17.50;13.00;;;;;9.41;65.05;102879.81;5017692;28;45494;-79
2022/01/28 12:34:24;;;;;;;;;22.75;20.00;;;;;9.37;65.31;102869.16;5021218;28;45502;-80
2022/01/28 12:36:50;;;;;;;;;18.50;16.50;;;;;9.32;65.15;102854.94;5021767;28;45597;-80
2022/01/28 12:39:32;;;;;;;;;19.00;17.75;;;;;9.35;65.26;102858.56;5016788;28;45411;-82
2022/01/28 12:42:07;;;;;;;;;19.00;17.00;;;;;9.30;64.89;102843.47;5030370;28;45410;-80
2022/01/28 12:44:34;;;;;;;;;20.50;14.75;;;;;9.35;65.82;102866.47;5020781;28;45592;-80